createdAt,value
2019-05-16T00:00:44.880Z,0.00
2019-05-16T00:02:37.872Z,0.00
2019-05-16T00:03:38.438Z,0.00
2019-05-16T00:05:30.939Z,0.00
2019-05-16T00:06:30.978Z,0.00
2019-05-16T00:08:24.001Z,0.00
2019-05-16T00:09:24.020Z,0.00
2019-05-16T00:11:17.960Z,0.00
2019-05-16T00:12:18.398Z,0.00
2019-05-16T00:14:10.085Z,0.00
2019-05-16T00:15:10.111Z,0.00
2019-05-16T00:17:03.096Z,0.00
2019-05-16T00:18:03.151Z,0.00
2019-05-16T00:19:56.147Z,0.00
2019-05-16T00:20:58.258Z,0.00
2019-05-16T00:22:49.203Z,0.00
2019-05-16T00:23:49.235Z,0.00
2019-05-16T00:25:42.217Z,0.00
2019-05-16T00:26:42.277Z,0.00
2019-05-16T00:28:37.858Z,0.00
2019-05-16T00:29:35.351Z,0.00
2019-05-16T00:31:28.723Z,0.00
2019-05-16T00:32:28.375Z,0.00
2019-05-16T00:34:21.404Z,0.00
2019-05-16T00:35:21.451Z,0.00
2019-05-16T00:37:14.402Z,0.00
2019-05-16T00:38:14.456Z,0.00
2019-05-16T00:40:08.255Z,0.00
2019-05-16T00:41:08.477Z,0.00
2019-05-16T00:43:00.510Z,0.00
2019-05-16T00:44:00.543Z,0.00
2019-05-16T00:45:53.589Z,0.00
2019-05-16T00:46:53.583Z,0.00
2019-05-16T00:48:48.575Z,0.00
2019-05-16T00:49:48.000Z,0.00
2019-05-16T00:51:39.639Z,0.00
2019-05-16T00:52:39.731Z,0.00
2019-05-16T00:54:32.660Z,0.00
2019-05-16T00:55:32.717Z,0.00
2019-05-16T00:57:28.052Z,0.00
2019-05-16T00:58:25.762Z,0.00
2019-05-16T01:00:18.792Z,0.00
2019-05-16T01:01:19.149Z,0.00
2019-05-16T01:03:11.795Z,0.00
2019-05-16T01:04:11.855Z,0.00
2019-05-16T01:06:15.653Z,0.00
2019-05-16T01:07:04.897Z,0.00
2019-05-16T01:08:58.048Z,0.00
2019-05-16T01:09:58.403Z,0.00
2019-05-16T01:11:50.952Z,0.00
2019-05-16T01:12:50.979Z,0.00
2019-05-16T01:14:43.963Z,0.00
2019-05-16T01:15:44.022Z,0.00
2019-05-16T01:17:39.055Z,0.00
2019-05-16T01:18:37.978Z,0.00
2019-05-16T01:20:30.051Z,0.00
2019-05-16T01:21:30.108Z,0.00
2019-05-16T01:23:23.118Z,0.00
2019-05-16T01:24:23.149Z,0.00
2019-05-16T01:26:18.376Z,0.00
2019-05-16T01:27:18.360Z,0.00
2019-05-16T01:29:11.652Z,0.00
2019-05-16T01:30:09.397Z,0.00
2019-05-16T01:32:02.228Z,0.00
2019-05-16T01:33:02.288Z,0.00
2019-05-16T01:34:55.296Z,0.00
2019-05-16T01:35:55.337Z,0.00
2019-05-16T01:37:48.820Z,0.00
2019-05-16T01:38:48.369Z,0.00
2019-05-16T01:40:41.352Z,0.00
2019-05-16T01:41:41.414Z,0.00
2019-05-16T01:43:34.419Z,0.00
2019-05-16T01:44:34.453Z,0.00
2019-05-16T01:46:28.509Z,0.00
2019-05-16T01:47:28.819Z,0.00
2019-05-16T01:49:20.504Z,0.00
2019-05-16T01:50:20.536Z,0.00
2019-05-16T01:52:13.526Z,0.00
2019-05-16T01:53:13.586Z,0.00
2019-05-16T01:55:08.293Z,0.00
2019-05-16T01:56:08.575Z,0.00
2019-05-16T01:57:59.626Z,0.00
2019-05-16T01:58:59.692Z,0.00
2019-05-16T02:01:06.061Z,0.00
2019-05-16T02:01:52.733Z,0.00
2019-05-16T02:03:47.969Z,0.00
2019-05-16T02:04:45.774Z,0.00
2019-05-16T02:06:50.407Z,0.00
2019-05-16T02:07:39.321Z,0.00
2019-05-16T02:09:32.330Z,0.00
2019-05-16T02:10:32.360Z,0.00
2019-05-16T02:12:27.607Z,0.00
2019-05-16T02:13:25.407Z,0.00
2019-05-16T02:15:18.457Z,0.00
2019-05-16T02:16:18.844Z,0.00
2019-05-16T02:18:11.451Z,0.00
2019-05-16T02:19:11.496Z,0.00
2019-05-16T02:21:04.504Z,0.00
2019-05-16T02:22:04.533Z,0.00
2019-05-16T02:23:58.547Z,0.00
2019-05-16T02:24:58.527Z,0.00
2019-05-16T02:26:52.364Z,0.00
2019-05-16T02:27:50.620Z,0.00
2019-05-16T02:29:43.606Z,0.00
2019-05-16T02:30:43.716Z,0.00
2019-05-16T02:32:36.672Z,0.00
2019-05-16T02:33:36.708Z,0.00
2019-05-16T02:35:31.118Z,0.00
2019-05-16T02:36:31.430Z,0.00
2019-05-16T02:38:22.741Z,0.00
2019-05-16T02:39:22.790Z,0.00
2019-05-16T02:41:15.774Z,0.00
2019-05-16T02:42:15.829Z,0.00
2019-05-16T02:44:11.827Z,0.00
2019-05-16T02:45:10.935Z,0.00
2019-05-16T02:47:01.983Z,0.00
2019-05-16T02:48:01.915Z,0.00
2019-05-16T02:49:54.918Z,0.00
2019-05-16T02:50:54.952Z,0.00
2019-05-16T02:52:47.942Z,0.00
2019-05-16T02:53:51.035Z,0.00
2019-05-16T02:55:41.223Z,0.00
2019-05-16T02:56:41.998Z,0.00
2019-05-16T02:58:34.049Z,0.00
2019-05-16T02:59:34.082Z,0.00
2019-05-16T03:01:27.069Z,4.00
2019-05-16T03:02:27.129Z,4.00
2019-05-16T03:04:21.304Z,4.00
2019-05-16T03:05:20.964Z,4.00
2019-05-16T03:07:32.908Z,4.00
2019-05-16T03:08:13.719Z,8.00
2019-05-16T03:10:06.733Z,8.00
2019-05-16T03:11:06.757Z,8.00
2019-05-16T03:13:00.828Z,12.00
2019-05-16T03:14:00.549Z,16.00
2019-05-16T03:15:52.814Z,20.00
2019-05-16T03:16:52.850Z,24.00
2019-05-16T03:18:45.837Z,28.00
2019-05-16T03:19:45.898Z,28.00
2019-05-16T03:21:41.276Z,32.00
2019-05-16T03:22:40.938Z,36.00
2019-05-16T03:24:31.950Z,44.00
2019-05-16T03:25:31.978Z,48.00
2019-05-16T03:27:24.958Z,56.00
2019-05-16T03:28:25.016Z,60.00
2019-05-16T03:30:23.378Z,72.00
2019-05-16T03:31:23.835Z,76.00
2019-05-16T03:33:19.108Z,92.00
2019-05-16T03:34:16.194Z,96.00
2019-05-16T03:36:05.126Z,104.00
2019-05-16T03:37:04.995Z,108.00
2019-05-16T03:38:57.199Z,120.00
2019-05-16T03:40:00.314Z,128.00
2019-05-16T03:41:50.764Z,144.00
2019-05-16T03:42:51.839Z,156.00
2019-05-16T03:44:43.220Z,176.00
2019-05-16T03:45:43.278Z,188.00
2019-05-16T03:47:36.283Z,204.00
2019-05-16T03:48:36.326Z,212.00
2019-05-16T03:50:30.648Z,228.00
2019-05-16T03:51:30.893Z,244.00
2019-05-16T03:53:22.372Z,276.00
2019-05-16T03:54:22.407Z,284.00
2019-05-16T03:56:15.423Z,296.00
2019-05-16T03:57:15.439Z,300.00
2019-05-16T03:59:10.927Z,304.00
2019-05-16T04:00:11.385Z,300.00
2019-05-16T04:02:01.865Z,284.00
2019-05-16T04:03:01.550Z,280.00
2019-05-16T04:04:54.586Z,268.00
2019-05-16T04:05:54.560Z,256.00
2019-05-16T04:07:47.567Z,256.00
2019-05-16T04:08:50.425Z,244.00
2019-05-16T04:10:40.970Z,248.00
2019-05-16T04:11:42.459Z,268.00
2019-05-16T04:13:33.652Z,268.00
2019-05-16T04:14:33.685Z,276.00
2019-05-16T04:16:26.666Z,308.00
2019-05-16T04:17:26.722Z,336.00
2019-05-16T04:19:21.143Z,324.00
2019-05-16T04:20:21.411Z,304.00
2019-05-16T04:22:12.762Z,288.00
2019-05-16T04:23:12.835Z,304.00
2019-05-16T04:25:05.829Z,340.00
2019-05-16T04:26:05.853Z,348.00
2019-05-16T04:28:01.033Z,396.00
2019-05-16T04:29:00.845Z,432.00
2019-05-16T04:30:51.888Z,524.00
2019-05-16T04:31:51.946Z,584.00
2019-05-16T04:33:44.969Z,688.00
2019-05-16T04:34:44.986Z,744.00
2019-05-16T04:36:40.429Z,996.00
2019-05-16T04:37:41.732Z,1124.00
2019-05-16T04:39:31.871Z,1244.00
2019-05-16T04:40:31.267Z,1284.00
2019-05-16T04:42:24.049Z,1336.00
2019-05-16T04:43:24.107Z,1416.00
2019-05-16T04:45:17.112Z,1376.00
2019-05-16T04:46:17.159Z,1312.00
2019-05-16T04:48:11.195Z,1304.00
2019-05-16T04:49:11.269Z,1260.00
2019-05-16T04:51:03.203Z,1112.00
2019-05-16T04:52:03.243Z,1024.00
2019-05-16T04:53:56.245Z,904.00
2019-05-16T04:54:56.303Z,884.00
2019-05-16T04:56:51.247Z,852.00
2019-05-16T04:57:51.112Z,820.00
2019-05-16T04:59:42.327Z,728.00
2019-05-16T05:00:42.357Z,744.00
2019-05-16T05:02:35.369Z,800.00
2019-05-16T05:03:35.404Z,828.00
2019-05-16T05:05:33.112Z,1000.00
2019-05-16T05:06:31.036Z,1152.00
2019-05-16T05:08:22.469Z,1448.00
2019-05-16T05:09:21.483Z,1540.00
2019-05-16T05:11:14.535Z,1500.00
2019-05-16T05:12:14.531Z,1488.00
2019-05-16T05:14:10.314Z,1508.00
2019-05-16T05:15:10.866Z,1620.00
2019-05-16T05:17:02.229Z,2024.00
2019-05-16T05:18:00.767Z,2220.00
2019-05-16T05:19:53.614Z,2716.00
2019-05-16T05:20:53.675Z,2916.00
2019-05-16T05:22:46.687Z,3004.00
2019-05-16T05:23:46.721Z,3172.00
2019-05-16T05:25:40.380Z,3684.00
2019-05-16T05:26:41.440Z,3696.00
2019-05-16T05:28:32.758Z,3672.00
2019-05-16T05:29:32.814Z,3720.00
2019-05-16T05:31:26.061Z,3800.00
2019-05-16T05:32:25.849Z,3760.00
2019-05-16T05:34:19.856Z,3488.00
2019-05-16T05:35:20.665Z,3328.00
2019-05-16T05:37:12.687Z,3748.00
2019-05-16T05:38:11.952Z,4204.00
2019-05-16T05:40:04.967Z,5368.00
2019-05-16T05:41:05.005Z,5804.00
2019-05-16T05:42:59.867Z,6524.00
2019-05-16T05:43:59.821Z,7040.00
2019-05-16T05:45:51.602Z,8280.00
2019-05-16T05:46:51.332Z,8596.00
2019-05-16T05:48:44.112Z,7680.00
2019-05-16T05:49:44.148Z,7316.00
2019-05-16T05:51:37.149Z,7848.00
2019-05-16T05:52:37.234Z,8376.00
2019-05-16T05:54:30.869Z,9220.00
2019-05-16T05:55:31.331Z,9544.00
2019-05-16T05:57:23.256Z,9720.00
2019-05-16T05:58:23.306Z,9716.00
2019-05-16T06:00:16.300Z,9836.00
2019-05-16T06:01:16.337Z,9832.00
2019-05-16T06:03:10.666Z,9736.00
2019-05-16T06:04:10.602Z,9576.00
2019-05-16T06:06:02.374Z,9076.00
2019-05-16T06:07:02.437Z,8592.00
2019-05-16T06:08:55.450Z,7736.00
2019-05-16T06:09:56.569Z,7320.00
2019-05-16T06:11:50.219Z,7236.00
2019-05-16T06:12:50.131Z,7400.00
2019-05-16T06:14:41.964Z,5892.00
2019-05-16T06:15:41.576Z,5300.00
2019-05-16T06:17:34.562Z,5132.00
2019-05-16T06:18:34.621Z,4924.00
2019-05-16T06:20:27.640Z,4964.00
2019-05-16T06:21:27.681Z,5004.00
2019-05-16T06:23:21.140Z,5192.00
2019-05-16T06:24:20.717Z,5780.00
2019-05-16T06:26:13.698Z,6112.00
2019-05-16T06:27:13.758Z,6268.00
2019-05-16T06:29:06.760Z,6588.00
2019-05-16T06:30:06.813Z,6748.00
2019-05-16T06:32:00.283Z,6264.00
2019-05-16T06:32:59.865Z,6080.00
2019-05-16T06:34:52.846Z,6168.00
2019-05-16T06:35:52.883Z,6492.00
2019-05-16T06:37:45.864Z,6984.00
2019-05-16T06:38:45.924Z,6812.00
2019-05-16T06:40:40.183Z,6328.00
2019-05-16T06:41:39.777Z,6540.00
2019-05-16T06:43:31.961Z,6660.00
2019-05-16T06:44:32.022Z,6388.00
2019-05-16T06:46:25.021Z,5496.00
2019-05-16T06:47:25.062Z,4972.00
2019-05-16T06:49:19.746Z,4772.00
2019-05-16T06:50:20.627Z,4636.00
2019-05-16T06:52:11.106Z,5420.00
2019-05-16T06:53:11.154Z,6764.00
2019-05-16T06:55:04.158Z,7712.00
2019-05-16T06:56:04.196Z,7820.00
2019-05-16T06:57:57.492Z,7508.00
2019-05-16T06:58:57.245Z,8088.00
2019-05-16T07:00:52.134Z,6864.00
2019-05-16T07:01:50.287Z,6140.00
2019-05-16T07:03:43.271Z,6532.00
2019-05-16T07:04:43.329Z,6792.00
2019-05-16T07:06:51.705Z,7480.00
2019-05-16T07:07:36.886Z,8184.00
2019-05-16T07:09:30.199Z,9460.00
2019-05-16T07:10:30.654Z,10464.00
2019-05-16T07:12:22.916Z,12608.00
2019-05-16T07:13:22.976Z,12556.00
2019-05-16T07:15:15.985Z,12808.00
2019-05-16T07:16:16.018Z,12996.00
2019-05-16T07:18:12.940Z,11384.00
2019-05-16T07:19:10.498Z,11692.00
2019-05-16T07:21:02.081Z,10892.00
2019-05-16T07:22:02.125Z,10052.00
2019-05-16T07:23:55.110Z,8700.00
2019-05-16T07:24:55.156Z,8756.00
2019-05-16T07:26:50.119Z,8352.00
2019-05-16T07:27:50.748Z,8408.00
2019-05-16T07:29:41.204Z,7724.00
2019-05-16T07:30:41.266Z,7656.00
2019-05-16T07:32:34.267Z,8184.00
2019-05-16T07:33:34.307Z,7152.00
2019-05-16T07:35:27.294Z,6964.00
2019-05-16T07:36:27.365Z,7444.00
2019-05-16T07:38:20.673Z,7436.00
2019-05-16T07:39:20.426Z,7252.00
2019-05-16T07:41:14.098Z,8964.00
2019-05-16T07:42:13.492Z,9204.00
2019-05-16T07:44:06.481Z,11852.00
2019-05-16T07:45:06.524Z,14492.00
2019-05-16T07:47:00.982Z,13136.00
2019-05-16T07:48:00.136Z,12500.00
2019-05-16T07:49:52.570Z,11820.00
2019-05-16T07:50:52.612Z,10620.00
2019-05-16T07:52:45.605Z,9728.00
2019-05-16T07:53:45.655Z,10776.00
2019-05-16T07:55:40.016Z,10880.00
2019-05-16T07:56:40.757Z,10576.00
2019-05-16T07:58:31.692Z,10836.00
2019-05-16T07:59:31.750Z,12300.00
2019-05-16T08:01:24.754Z,10216.00
2019-05-16T08:02:24.797Z,11736.00
2019-05-16T08:04:19.865Z,10080.00
2019-05-16T08:05:17.843Z,10300.00
2019-05-16T08:07:11.363Z,10488.00
2019-05-16T08:08:11.399Z,10120.00
2019-05-16T08:10:04.405Z,9328.00
2019-05-16T08:11:04.452Z,10376.00
2019-05-16T08:13:03.089Z,12096.00
2019-05-16T08:13:57.488Z,13040.00
2019-05-16T08:15:50.998Z,14228.00
2019-05-16T08:16:50.558Z,15028.00
2019-05-16T08:18:45.219Z,12896.00
2019-05-16T08:19:43.593Z,12124.00
2019-05-16T08:21:36.609Z,12444.00
2019-05-16T08:22:36.648Z,13584.00
2019-05-16T08:24:30.980Z,16800.00
2019-05-16T08:25:31.391Z,19648.00
2019-05-16T08:27:22.718Z,28096.00
2019-05-16T08:28:22.754Z,30880.00
2019-05-16T08:30:15.764Z,35776.00
2019-05-16T08:31:15.797Z,33088.00
2019-05-16T08:33:13.222Z,26624.00
2019-05-16T08:34:11.713Z,22432.00
2019-05-16T08:36:07.550Z,21376.00
2019-05-16T08:37:01.911Z,30880.00
2019-05-16T08:38:54.898Z,27584.00
2019-05-16T08:39:54.959Z,25696.00
2019-05-16T08:41:51.613Z,23328.00
2019-05-16T08:42:51.585Z,23776.00
2019-05-16T08:44:41.924Z,32704.00
2019-05-16T08:47:34.083Z,27104.00
2019-05-16T08:48:34.129Z,25984.00
2019-05-16T08:50:27.124Z,22624.00
2019-05-16T08:51:27.185Z,26016.00
2019-05-16T08:53:21.488Z,22656.00
2019-05-16T08:54:21.337Z,23392.00
2019-05-16T08:56:13.419Z,20928.00
2019-05-16T08:59:06.319Z,17376.00
2019-05-16T09:00:06.367Z,15632.00
2019-05-16T09:02:03.201Z,14244.00
2019-05-16T09:03:01.771Z,15360.00
2019-05-16T09:04:53.539Z,19712.00
2019-05-16T09:05:53.692Z,18816.00
2019-05-16T09:07:45.491Z,20192.00
2019-05-16T09:08:45.530Z,21440.00
2019-05-16T09:10:35.081Z,20320.00
2019-05-16T09:10:39.201Z,26208.00
2019-05-16T09:10:59.121Z,52192.00
2019-05-16T09:11:44.093Z,39008.00
2019-05-16T09:13:31.585Z,52000.00
2019-05-16T09:14:35.157Z,52608.00
2019-05-16T09:16:27.271Z,58560.00
2019-05-16T09:17:27.299Z,61888.00
2019-05-16T09:19:17.716Z,59616.00
2019-05-16T09:20:17.871Z,58272.00
2019-05-16T09:22:10.751Z,57728.00
2019-05-16T09:23:10.834Z,52576.00
2019-05-16T09:25:03.838Z,29632.00
2019-05-16T09:26:03.878Z,29664.00
2019-05-16T09:27:57.082Z,27552.00
2019-05-16T09:28:57.447Z,27936.00
2019-05-16T09:30:49.975Z,26112.00
2019-05-16T09:32:08.060Z,26592.00
2019-05-16T09:33:43.037Z,23168.00
2019-05-16T09:34:43.094Z,22176.00
2019-05-16T09:36:37.161Z,21664.00
2019-05-16T09:37:37.528Z,21696.00
2019-05-16T09:39:29.163Z,21344.00
2019-05-16T09:40:29.220Z,21216.00
2019-05-16T09:42:22.231Z,22496.00
2019-05-16T09:43:22.278Z,22432.00
2019-05-16T09:45:17.116Z,21632.00
2019-05-16T09:46:17.209Z,22176.00
2019-05-16T09:48:08.451Z,21632.00
2019-05-16T09:49:19.455Z,17312.00
2019-05-16T09:51:01.421Z,18144.00
2019-05-16T09:52:01.481Z,17728.00
2019-05-16T09:53:56.631Z,17664.00
2019-05-16T09:54:54.527Z,18400.00
2019-05-16T09:56:47.525Z,19008.00
2019-05-16T09:57:47.629Z,16032.00
2019-05-16T09:59:40.591Z,19232.00
2019-05-16T10:00:40.643Z,19232.00
2019-05-16T10:02:33.645Z,19424.00
2019-05-16T10:03:33.711Z,18400.00
2019-05-16T10:05:26.989Z,20704.00
2019-05-16T10:06:27.582Z,18944.00
2019-05-16T10:08:19.760Z,17728.00
2019-05-16T10:09:19.832Z,17024.00
2019-05-16T10:11:12.836Z,15876.00
2019-05-16T10:12:15.509Z,14816.00
2019-05-16T10:14:07.281Z,14756.00
2019-05-16T10:15:07.454Z,14984.00
2019-05-16T10:16:58.952Z,15596.00
2019-05-16T10:17:59.005Z,14544.00
2019-05-16T10:19:52.023Z,16260.00
2019-05-16T10:20:52.068Z,19328.00
2019-05-16T10:22:46.877Z,21056.00
2019-05-16T10:23:46.957Z,22848.00
2019-05-16T10:25:38.121Z,17024.00
2019-05-16T10:26:38.178Z,19744.00
2019-05-16T10:28:31.193Z,21536.00
2019-05-16T10:29:31.233Z,19328.00
2019-05-16T10:31:38.523Z,14456.00
2019-05-16T10:32:24.294Z,13152.00
2019-05-16T10:34:17.451Z,9708.00
2019-05-16T10:35:17.375Z,9932.00
2019-05-16T10:37:10.356Z,9168.00
2019-05-16T10:38:10.419Z,10060.00
2019-05-16T10:40:03.431Z,16444.00
2019-05-16T10:41:03.474Z,19840.00
2019-05-16T10:42:57.936Z,20064.00
2019-05-16T10:43:56.848Z,17152.00
2019-05-16T10:45:49.553Z,17120.00
2019-05-16T10:46:49.593Z,17376.00
2019-05-16T10:48:42.606Z,19008.00
2019-05-16T10:49:42.662Z,20384.00
2019-05-16T10:51:37.795Z,20224.00
2019-05-16T10:52:36.702Z,20160.00
2019-05-16T10:54:28.738Z,15388.00
2019-05-16T10:55:28.828Z,12836.00
2019-05-16T10:57:21.865Z,10864.00
2019-05-16T10:58:35.307Z,11164.00
2019-05-16T11:00:34.432Z,11356.00
2019-05-16T11:01:26.966Z,11568.00
2019-05-16T11:03:07.905Z,12580.00
2019-05-16T11:04:07.977Z,12568.00
2019-05-16T11:06:06.067Z,11468.00
2019-05-16T11:07:01.001Z,11580.00
2019-05-16T11:08:54.092Z,10620.00
2019-05-16T11:09:59.331Z,9376.00
2019-05-16T11:11:47.730Z,8396.00
2019-05-16T11:12:54.845Z,8004.00
2019-05-16T11:14:40.234Z,8904.00
2019-05-16T11:15:40.268Z,9104.00
2019-05-16T11:17:33.297Z,9500.00
2019-05-16T11:18:33.333Z,9304.00
2019-05-16T11:20:26.955Z,9128.00
2019-05-16T11:21:26.924Z,8716.00
2019-05-16T11:23:23.351Z,7496.00
2019-05-16T11:24:19.476Z,7640.00
2019-05-16T11:26:12.469Z,9020.00
2019-05-16T11:27:12.517Z,9348.00
2019-05-16T11:29:07.420Z,8128.00
2019-05-16T11:30:07.517Z,8664.00
2019-05-16T11:31:58.598Z,9104.00
2019-05-16T11:32:58.624Z,9044.00
2019-05-16T11:34:51.626Z,8796.00
2019-05-16T11:35:51.673Z,10004.00
2019-05-16T11:37:47.090Z,10896.00
2019-05-16T11:38:47.270Z,10012.00
2019-05-16T11:40:37.751Z,8460.00
2019-05-16T11:41:37.788Z,7900.00
2019-05-16T11:43:30.787Z,7720.00
2019-05-16T11:44:30.852Z,8020.00
2019-05-16T11:46:23.863Z,9372.00
2019-05-16T11:47:23.907Z,9240.00
2019-05-16T11:49:16.933Z,8088.00
2019-05-16T11:50:17.827Z,7820.00
2019-05-16T11:52:09.993Z,8408.00
2019-05-16T11:53:10.024Z,9036.00
2019-05-16T11:55:03.077Z,10680.00
2019-05-16T11:56:03.079Z,11216.00
2019-05-16T11:57:56.878Z,9348.00
2019-05-16T11:58:57.044Z,8644.00
2019-05-16T12:00:49.123Z,8848.00
2019-05-16T12:01:49.188Z,9668.00
2019-05-16T12:03:42.198Z,9544.00
2019-05-16T12:04:42.242Z,10732.00
2019-05-16T12:06:37.291Z,14524.00
2019-05-16T12:07:43.682Z,14700.00
2019-05-16T12:09:33.624Z,17632.00
2019-05-16T12:10:28.344Z,17568.00
2019-05-16T12:12:21.351Z,17664.00
2019-05-16T12:13:27.743Z,17056.00
2019-05-16T12:15:19.167Z,16324.00
2019-05-16T12:16:16.375Z,15836.00
2019-05-16T12:18:08.648Z,19296.00
2019-05-16T12:19:07.501Z,19904.00
2019-05-16T12:21:00.524Z,17344.00
2019-05-16T12:22:00.553Z,17472.00
2019-05-16T12:23:53.548Z,16832.00
2019-05-16T12:24:53.604Z,15860.00
2019-05-16T12:26:48.004Z,14860.00
2019-05-16T12:27:48.097Z,13624.00
2019-05-16T12:29:39.660Z,11996.00
2019-05-16T12:30:40.434Z,11160.00
2019-05-16T12:32:32.734Z,9804.00
2019-05-16T12:33:32.804Z,9844.00
2019-05-16T12:35:27.742Z,11616.00
2019-05-16T12:36:26.791Z,13552.00
2019-05-16T12:38:18.854Z,14716.00
2019-05-16T12:39:18.877Z,14156.00
2019-05-16T12:41:11.886Z,14580.00
2019-05-16T12:42:11.930Z,14276.00
2019-05-16T12:44:07.425Z,13864.00
2019-05-16T12:45:06.871Z,14512.00
2019-05-16T12:46:58.013Z,14868.00
2019-05-16T12:47:58.038Z,14120.00
2019-05-16T12:49:51.029Z,12676.00
2019-05-16T12:50:51.090Z,14096.00
2019-05-16T12:52:44.106Z,19008.00
2019-05-16T12:53:44.148Z,21312.00
2019-05-16T12:55:37.162Z,22240.00
2019-05-16T12:56:37.856Z,20960.00
2019-05-16T12:58:38.122Z,11084.00
2019-05-16T12:59:30.262Z,9112.00
2019-05-16T13:01:30.564Z,7252.00
2019-05-16T13:02:23.319Z,6816.00
2019-05-16T13:04:18.934Z,7340.00
2019-05-16T13:05:17.794Z,7608.00
2019-05-16T13:07:09.944Z,7832.00
2019-05-16T13:08:09.931Z,8500.00
2019-05-16T13:10:02.986Z,9184.00
2019-05-16T13:11:02.995Z,9692.00
2019-05-16T13:12:57.998Z,9612.00
2019-05-16T13:14:03.463Z,8252.00
2019-05-16T13:15:49.025Z,7180.00
2019-05-16T13:16:49.087Z,7488.00
2019-05-16T13:18:42.107Z,7836.00
2019-05-16T13:19:44.491Z,8300.00
2019-05-16T13:21:37.878Z,7788.00
2019-05-16T13:22:38.052Z,7752.00
2019-05-16T13:24:28.211Z,8904.00
2019-05-16T13:25:28.265Z,9064.00
2019-05-16T13:27:23.211Z,10044.00
2019-05-16T13:28:21.319Z,8996.00
2019-05-16T13:30:14.548Z,8460.00
2019-05-16T13:31:16.913Z,9056.00
2019-05-16T13:33:07.626Z,9820.00
2019-05-16T13:34:07.658Z,9644.00
2019-05-16T13:36:00.657Z,8932.00
2019-05-16T13:37:00.709Z,8720.00
2019-05-16T13:38:53.715Z,8800.00
2019-05-16T13:39:53.758Z,9216.00
2019-05-16T13:41:46.745Z,8600.00
2019-05-16T13:42:48.046Z,8084.00
2019-05-16T13:44:39.819Z,7856.00
2019-05-16T13:45:39.862Z,7816.00
2019-05-16T13:47:32.872Z,7080.00
2019-05-16T13:48:32.915Z,7004.00
2019-05-16T13:50:27.317Z,7232.00
2019-05-16T13:51:26.688Z,7192.00
2019-05-16T13:53:18.965Z,7152.00
2019-05-16T13:54:19.013Z,6836.00
2019-05-16T13:56:13.559Z,6696.00
2019-05-16T13:57:12.061Z,6764.00
2019-05-16T13:59:07.511Z,6424.00
2019-05-16T14:00:07.433Z,6608.00
2019-05-16T14:01:58.098Z,6928.00
2019-05-16T14:02:58.158Z,7324.00
2019-05-16T14:04:51.164Z,7264.00
2019-05-16T14:05:51.207Z,7076.00
2019-05-16T14:07:44.718Z,7304.00
2019-05-16T14:08:46.833Z,7136.00
2019-05-16T14:10:37.868Z,8308.00
2019-05-16T14:11:37.826Z,8604.00
2019-05-16T14:13:30.831Z,7992.00
2019-05-16T14:14:37.254Z,7796.00
2019-05-16T14:16:23.887Z,7768.00
2019-05-16T14:17:23.929Z,7568.00
2019-05-16T14:19:17.633Z,6900.00
2019-05-16T14:20:18.163Z,6508.00
2019-05-16T14:22:09.977Z,6012.00
2019-05-16T14:23:10.023Z,6196.00
2019-05-16T14:25:03.036Z,6636.00
2019-05-16T14:26:03.078Z,6684.00
2019-05-16T14:27:56.791Z,6184.00
2019-05-16T14:28:57.764Z,6232.00
2019-05-16T14:30:49.120Z,6680.00
2019-05-16T14:31:49.178Z,6800.00
2019-05-16T14:33:42.195Z,6940.00
2019-05-16T14:34:42.236Z,7348.00
2019-05-16T14:36:37.728Z,6496.00
2019-05-16T14:37:37.622Z,5708.00
2019-05-16T14:39:28.695Z,5780.00
2019-05-16T14:40:28.333Z,6764.00
2019-05-16T14:42:21.355Z,9028.00
2019-05-16T14:43:21.388Z,9228.00
2019-05-16T14:45:16.830Z,9348.00
2019-05-16T14:46:14.443Z,9552.00
2019-05-16T14:48:08.015Z,9548.00
2019-05-16T14:49:07.675Z,9720.00
2019-05-16T14:51:00.481Z,8340.00
2019-05-16T14:52:00.542Z,7068.00
2019-05-16T14:53:53.544Z,6276.00
2019-05-16T14:54:53.587Z,7040.00
2019-05-16T14:56:47.520Z,8044.00
2019-05-16T14:57:47.300Z,7876.00
2019-05-16T14:59:39.623Z,7880.00
2019-05-16T15:00:39.686Z,7476.00
2019-05-16T15:02:32.696Z,7572.00
2019-05-16T15:03:32.732Z,7880.00
2019-05-16T15:05:25.741Z,8676.00
2019-05-16T15:06:27.487Z,9300.00
2019-05-16T15:08:18.787Z,8136.00
2019-05-16T15:09:18.831Z,7472.00
2019-05-16T15:11:14.462Z,6508.00
2019-05-16T15:12:11.881Z,6188.00
2019-05-16T15:14:07.141Z,5580.00
2019-05-16T15:15:19.156Z,5300.00
2019-05-16T15:16:57.910Z,5008.00
2019-05-16T15:17:57.972Z,4756.00
2019-05-16T15:19:50.998Z,4508.00
2019-05-16T15:20:51.054Z,4180.00
2019-05-16T15:22:47.480Z,3252.00
2019-05-16T15:23:47.399Z,3292.00
2019-05-16T15:25:41.913Z,3540.00
2019-05-16T15:26:40.445Z,3652.00
2019-05-16T15:28:33.455Z,3912.00
2019-05-16T15:29:33.524Z,3932.00
2019-05-16T15:31:26.506Z,5740.00
2019-05-16T15:32:28.259Z,6204.00
2019-05-16T15:34:19.534Z,5036.00
2019-05-16T15:35:19.599Z,4968.00
2019-05-16T15:37:12.618Z,6944.00
2019-05-16T15:38:12.911Z,6752.00
2019-05-16T15:40:07.233Z,7320.00
2019-05-16T15:41:08.194Z,7176.00
2019-05-16T15:42:59.133Z,6552.00
2019-05-16T15:43:59.306Z,5360.00
2019-05-16T15:45:53.150Z,4520.00
2019-05-16T15:46:51.791Z,4712.00
2019-05-16T15:48:48.530Z,5524.00
2019-05-16T15:49:44.837Z,5568.00
2019-05-16T15:51:37.819Z,5312.00
2019-05-16T15:52:38.449Z,5544.00
2019-05-16T15:54:30.887Z,5632.00
2019-05-16T15:55:30.927Z,5596.00
2019-05-16T15:57:23.917Z,6180.00
2019-05-16T15:58:26.532Z,6268.00
2019-05-16T16:00:18.286Z,5532.00
2019-05-16T16:01:18.538Z,5156.00
2019-05-16T16:03:10.034Z,4900.00
2019-05-16T16:04:10.074Z,5004.00
2019-05-16T16:06:03.058Z,5340.00
2019-05-16T16:07:03.118Z,5720.00
2019-05-16T16:08:56.134Z,5464.00
2019-05-16T16:09:57.664Z,5308.00
2019-05-16T16:11:49.160Z,4564.00
2019-05-16T16:12:49.220Z,4352.00
2019-05-16T16:14:42.224Z,3856.00
2019-05-16T16:15:50.294Z,3448.00
2019-05-16T16:17:37.704Z,2756.00
2019-05-16T16:18:37.635Z,2492.00
2019-05-16T16:20:28.416Z,2112.00
2019-05-16T16:21:28.444Z,2352.00
2019-05-16T16:23:21.446Z,3072.00
2019-05-16T16:24:21.498Z,3096.00
2019-05-16T16:26:14.510Z,3216.00
2019-05-16T16:27:16.902Z,3260.00
2019-05-16T16:29:07.564Z,3192.00
2019-05-16T16:30:07.610Z,3168.00
2019-05-16T16:32:00.618Z,2768.00
2019-05-16T16:33:00.652Z,2688.00
2019-05-16T16:34:53.687Z,2864.00
2019-05-16T16:35:53.707Z,2576.00
2019-05-16T16:37:46.992Z,2392.00
2019-05-16T16:38:47.602Z,2336.00
2019-05-16T16:40:39.755Z,2088.00
2019-05-16T16:41:39.799Z,2052.00
2019-05-16T16:43:32.782Z,2080.00
2019-05-16T16:44:32.844Z,1928.00
2019-05-16T16:46:27.062Z,1692.00
2019-05-16T16:47:26.934Z,1680.00
2019-05-16T16:49:18.893Z,1488.00
2019-05-16T16:50:18.931Z,1488.00
2019-05-16T16:52:11.925Z,1420.00
2019-05-16T16:53:11.976Z,1484.00
2019-05-16T16:55:07.210Z,1296.00
2019-05-16T16:56:07.226Z,1332.00
2019-05-16T16:57:59.678Z,1280.00
2019-05-16T16:58:58.175Z,1412.00
2019-05-16T17:00:51.089Z,1516.00
2019-05-16T17:01:51.113Z,1520.00
2019-05-16T17:03:44.135Z,1348.00
2019-05-16T17:04:50.245Z,1296.00
2019-05-16T17:06:37.557Z,1576.00
2019-05-16T17:07:37.601Z,1600.00
2019-05-16T17:09:30.217Z,1748.00
2019-05-16T17:10:30.265Z,1816.00
2019-05-16T17:12:23.245Z,1824.00
2019-05-16T17:13:23.316Z,2004.00
2019-05-16T17:15:17.101Z,2172.00
2019-05-16T17:16:25.316Z,2136.00
2019-05-16T17:18:09.350Z,1872.00
2019-05-16T17:19:09.389Z,1852.00
2019-05-16T17:21:02.375Z,1828.00
2019-05-16T17:22:13.733Z,1732.00
2019-05-16T17:23:56.918Z,1576.00
2019-05-16T17:24:56.676Z,1556.00
2019-05-16T17:26:48.464Z,1596.00
2019-05-16T17:27:48.518Z,1656.00
2019-05-16T17:29:41.524Z,1684.00
2019-05-16T17:30:41.568Z,1644.00
2019-05-16T17:32:34.551Z,1840.00
2019-05-16T17:33:37.715Z,1820.00
2019-05-16T17:35:27.612Z,1604.00
2019-05-16T17:36:27.655Z,1556.00
2019-05-16T17:38:20.637Z,1592.00
2019-05-16T17:39:20.694Z,1808.00